Terminal Aerodrome Forecast
Issued by NWS Sioux Falls, SD

Home | Current Version | Previous Version | Graphics & Text | Print | Product List | Glossary Off
Versions: 1 2 3 4 5 6 7 8 9 10 11 12 13 14 15 16 17 18 19 20 21 22

000
FTUS43 KFSD 172320
TAFFSD
TAF
KFSD 172320Z 1800/1824 VRB03KT P6SM BKN250
     FM180200 11005KT P6SM BKN100
     FM181200 14005KT P6SM SCT012 OVC050
     FM181500 14005KT P6SM OVC008=

USA.gov is the U.S. government's official web portal to all federal, state and local government web resources and services.